This is the latest recevied weather packets stored in our database for station/object W2DRT. If no packets are shown the sender has not sent any weather packets the latest 10 day(s).
| Time | Temp. | Humidity | Pressure | Rain* | Wind** | Luminosity | Snow |
|---|---|---|---|---|---|---|---|
| 1777487049 | 21.11° C | 45% | 1014 hPa | - | - | - | - |
| 1777485848 | 21.11° C | 46% | 1014.3 hPa | - | - | - | - |
| 1777484042 | 21.11° C | 45% | 1014.3 hPa | - | - | - | - |
| 1777483441 | 21.67° C | 45% | 1014.3 hPa | - | - | - | - |
| 1777481033 | 20.56° C | 47% | 1015 hPa | - | - | - | - |
| 1777480432 | 20° C | 47% | 1015 hPa | - | - | - | - |
| 1777479830 | 19.44° C | 48% | 1015.3 hPa | - | - | - | - |
| 1777479230 | 19.44° C | 48% | 1015.3 hPa | - | - | - | - |
| 1777478629 | 18.89° C | 48% | 1015.3 hPa | - | - | - | - |
| 1777477427 | 18.89° C | 49% | 1016 hPa | - | - | - | - |
| 1777476826 | 18.33° C | 50% | 1015.6 hPa | - | - | - | - |
| 1777475624 | 17.22° C | 52% | 1016.3 hPa | - | - | - | - |
| 1777475021 | 17.22° C | 52% | 1016 hPa | - | - | - | - |
| 1777473212 | 16.67° C | 52% | 1016 hPa | - | - | - | - |
| 1777472612 | 16.67° C | 53% | 1016.3 hPa | - | - | - | - |
| 1777469001 | 14.44° C | 56% | 1016.3 hPa | - | - | - | - |
| 1777468399 | 14.44° C | 58% | 1016.7 hPa | - | - | - | - |
| 1777467797 | 14.44° C | 58% | 1016.7 hPa | - | - | - | - |
| 1777465988 | 12.78° C | 63% | 1016.7 hPa | - | - | - | - |
| 1777465385 | 12.78° C | 63% | 1016.7 hPa | - | - | - | - |
| 1777464780 | 12.22° C | 63% | 1016.7 hPa | - | - | - | - |
| 1777464178 | 12.22° C | 64% | 1017 hPa | - | - | - | - |
| 1777462971 | 12.22° C | 65% | 1017 hPa | - | - | - | - |
| 1777462367 | 11.67° C | 66% | 1017 hPa | - | - | - | - |
| 1777461767 | 11.11° C | 66% | 1017 hPa | - | - | - | - |
* Rain since midnight (hover to see other rain measurements)
** Current wind speed in m/s (hover to see current wind gust speed)